Time;durP1;ratioP1;P1;durP2;ratioP2;P2;SDS_P1;SDS_P2;PMS_P1;PMS_P2;Temp;Humidity;BMP_temperature;BMP_pressure;BME280_temperature;BME280_humidity;BME280_pressure;Samples;Min_cycle;Max_cycle;Signal;HPM_P1;HPM_P2
2023/01/16 00:01:35;;;;;;;;;;;;;;;7.75;68.72;99503.16;5005845;28;20362;-82
2023/01/16 00:04:01;;;;;;;;;;;;;;;7.76;68.64;99490.53;4993669;28;19928;-81
2023/01/16 00:06:26;;;;;;;;;;;;;;;7.76;68.54;99490.53;5000647;28;20020;-81
2023/01/16 00:08:51;;;;;;;;;;;;;;;7.76;68.67;99482.47;4998950;28;19925;-80
2023/01/16 00:11:16;;;;;;;;;;;;;;;7.75;68.60;99478.16;5009271;28;19926;-80
2023/01/16 00:13:42;;;;;;;;;;;;;;;7.75;68.79;99481.66;5004571;28;19926;-81
2023/01/16 00:16:07;;;;;;;;;;;;;;;7.75;68.40;99476.28;4992940;28;19932;-82
2023/01/16 00:18:33;;;;;;;;;;;;;;;7.75;68.82;99473.59;4999328;28;19966;-82
2023/01/16 00:20:59;;;;;;;;;;;;;;;7.74;68.79;99473.88;5003146;28;19921;-81
2023/01/16 00:23:24;;;;;;;;;;;;;;;7.74;68.56;99468.50;5011285;28;19922;-80
2023/01/16 00:25:49;;;;;;;;;;;;;;;7.72;68.64;99451.81;5008060;28;20287;-82
2023/01/16 00:28:15;;;;;;;;;;;;;;;7.73;68.46;99456.91;4997619;28;19972;-81
2023/01/16 00:30:42;;;;;;;;;;;;;;;7.71;68.76;99455.53;5009362;28;19926;-82
2023/01/16 00:33:07;;;;;;;;;;;;;;;7.72;68.62;99446.41;5012211;28;20381;-80
2023/01/16 00:35:33;;;;;;;;;;;;;;;7.72;68.79;99449.91;5014237;28;19957;-81
2023/01/16 00:37:58;;;;;;;;;;;;;;;7.72;68.47;99441.03;5001380;28;20382;-81
2023/01/16 00:40:24;;;;;;;;;;;;;;;7.70;68.58;99449.34;5009785;28;19932;-76
2023/01/16 00:42:49;;;;;;;;;;;;;;;7.70;68.62;99435.09;5007949;28;19967;-81
2023/01/16 00:45:14;;;;;;;;;;;;;;;7.70;68.65;99435.09;5008167;28;19938;-82
2023/01/16 00:47:40;;;;;;;;;;;;;;;7.70;68.52;99427.84;5005357;28;20041;-80
2023/01/16 00:50:05;;;;;;;;;;;;;;;7.69;68.67;99428.94;5014103;28;19932;-82
2023/01/16 00:52:30;;;;;;;;;;;;;;;7.69;68.47;99417.38;5003495;28;19930;-82
2023/01/16 00:54:56;;;;;;;;;;;;;;;7.68;68.55;99421.91;5002710;28;19925;-82
2023/01/16 00:57:21;;;;;;;;;;;;;;;7.68;68.32;99413.03;5014511;28;19926;-82
2023/01/16 00:59:46;;;;;;;;;;;;;;;7.67;68.58;99408.75;5014933;28;19929;-81
2023/01/16 01:02:11;;;;;;;;;;;;;;;7.68;68.56;99403.09;5008686;28;19933;-81
2023/01/16 01:04:37;;;;;;;;;;;;;;;7.67;68.41;99395.31;5005879;28;20020;-81
2023/01/16 01:07:02;;;;;;;;;;;;;;;7.68;68.59;99388.84;5009701;28;20285;-82
2023/01/16 01:09:27;;;;;;;;;;;;;;;7.67;68.51;99387.25;5013535;28;19921;-80
2023/01/16 01:11:52;;;;;;;;;;;;;;;7.67;68.32;99385.38;5014850;28;19944;-80
2023/01/16 01:14:18;;;;;;;;;;;;;;;7.66;68.61;99372.19;5012127;28;19936;-81
2023/01/16 01:16:43;;;;;;;;;;;;;;;7.66;68.43;99369.50;5005758;28;20259;-82
2023/01/16 01:19:08;;;;;;;;;;;;;;;7.65;68.38;99363.31;5004723;28;19973;-82
2023/01/16 01:21:33;;;;;;;;;;;;;;;7.63;68.52;99354.69;5015122;28;19952;-82
2023/01/16 01:23:59;;;;;;;;;;;;;;;7.64;68.52;99353.63;5012707;28;19925;-80
2023/01/16 01:26:24;;;;;;;;;;;;;;;7.63;68.28;99338.56;5001821;28;20009;-81
2023/01/16 01:28:49;;;;;;;;;;;;;;;7.62;68.41;99345.00;5010107;28;20290;-81
2023/01/16 01:31:14;;;;;;;;;;;;;;;7.61;68.42;99338.03;5007092;28;19977;-79
2023/01/16 01:33:40;;;;;;;;;;;;;;;7.61;68.26;99335.34;5004568;28;20318;-81
2023/01/16 01:36:06;;;;;;;;;;;;;;;7.61;68.23;99323.75;5005123;28;19964;-79
2023/01/16 01:38:32;;;;;;;;;;;;;;;7.61;68.26;99318.38;5007622;28;20390;-80
2023/01/16 01:40:57;;;;;;;;;;;;;;;7.60;68.30;99312.22;5014325;28;19921;-80
2023/01/16 01:43:38;;;;;;;;;;;;;;;7.60;68.35;99301.47;5013236;28;20435;-80
2023/01/16 01:46:03;;;;;;;;;;;;;;;7.58;68.32;99293.69;4998567;28;19928;-82
2023/01/16 01:48:32;;;;;;;;;;;;;;;7.59;68.29;99299.84;5013115;28;19930;-81
2023/01/16 01:51:09;;;;;;;;;;;;;;;7.58;68.32;99291.00;5013583;28;19921;-80
2023/01/16 01:53:36;;;;;;;;;;;;;;;7.58;68.10;99288.31;5013260;28;19964;-82
2023/01/16 01:56:06;;;;;;;;;;;;;;;7.58;68.20;99271.34;5014819;28;19924;-81
2023/01/16 01:58:32;;;;;;;;;;;;;;;7.57;68.22;99269.75;4997266;28;19926;-80
2023/01/16 02:00:59;;;;;;;;;;;;;;;7.56;68.29;99268.94;5027228;28;20020;-81
2023/01/16 02:03:28;;;;;;;;;;;;;;;7.56;68.22;99260.06;4999148;28;20432;-81
2023/01/16 02:05:55;;;;;;;;;;;;;;;7.56;68.19;99257.38;4994881;28;20393;-80
2023/01/16 02:08:22;;;;;;;;;;;;;;;7.55;68.06;99255.75;5002716;28;19929;-78
2023/01/16 02:10:54;;;;;;;;;;;;;;;7.54;68.10;99248.78;5008135;28;20015;-80
2023/01/16 02:13:19;;;;;;;;;;;;;;;7.53;68.41;99239.91;5013259;28;19953;-81
2023/01/16 02:21:19;;;;;;;;;;;;;;;7.50;68.19;99226.97;5013910;28;19975;-78
2023/01/16 02:23:56;;;;;;;;;;;;;;;7.50;68.33;99224.28;5011852;28;19925;-78
2023/01/16 02:26:40;;;;;;;;;;;;;;;7.49;68.27;99213.81;4998942;28;19925;-79
2023/01/16 02:29:15;;;;;;;;;;;;;;;7.48;68.30;99201.44;5007020;28;19967;-78
2023/01/16 02:31:48;;;;;;;;;;;;;;;7.48;68.28;99191.47;5011206;28;19939;-79
2023/01/16 02:34:24;;;;;;;;;;;;;;;7.47;68.31;99191.75;5006839;28;19964;-75
2023/01/16 02:36:49;;;;;;;;;;;;;;;7.46;68.06;99179.38;4996918;28;20373;-80
2023/01/16 02:39:33;;;;;;;;;;;;;;;7.44;68.50;99166.22;5009534;28;19928;-77
2023/01/16 02:42:03;;;;;;;;;;;;;;;7.44;68.26;99154.69;5007168;28;20416;-79
2023/01/16 02:44:38;;;;;;;;;;;;;;;7.44;68.54;99152.78;5007047;28;19928;-82
2023/01/16 02:47:10;;;;;;;;;;;;;;;7.44;68.48;99158.16;5012022;28;19928;-81
2023/01/16 02:49:42;;;;;;;;;;;;;;;7.43;68.37;99140.41;5003974;28;19933;-81
2023/01/16 02:52:10;;;;;;;;;;;;;;;7.42;68.24;99127.25;5012034;28;19948;-80
2023/01/16 02:54:43;;;;;;;;;;;;;;;7.41;68.43;99125.63;5011170;28;19921;-78
2023/01/16 02:57:12;;;;;;;;;;;;;;;7.41;68.25;99112.19;4994365;28;19929;-81
2023/01/16 02:59:39;;;;;;;;;;;;;;;7.42;68.12;99101.19;4994705;28;19926;-80
2023/01/16 03:02:05;;;;;;;;;;;;;;;7.41;68.21;99101.44;5004755;28;19928;-79
2023/01/16 03:04:45;;;;;;;;;;;;;;;7.38;68.19;99086.66;5007790;28;19926;-79
2023/01/16 03:07:29;;;;;;;;;;;;;;;7.39;68.08;99085.63;4998786;28;20393;-81
2023/01/16 03:10:09;;;;;;;;;;;;;;;7.39;68.35;99071.38;5002278;28;21187;-80
2023/01/16 03:12:47;;;;;;;;;;;;;;;7.36;68.28;99067.34;5019266;28;19969;-80
2023/01/16 03:15:15;;;;;;;;;;;;;;;7.36;68.04;99057.41;5011135;28;19956;-80
2023/01/16 03:18:03;;;;;;;;;;;;;;;7.36;68.36;99048.53;5011239;28;19917;-81
2023/01/16 03:20:34;;;;;;;;;;;;;;;7.34;68.28;99038.03;5001524;28;19922;-81
2023/01/16 03:23:12;;;;;;;;;;;;;;;7.34;68.12;99030.00;5000177;28;20166;-80
2023/01/16 03:25:46;;;;;;;;;;;;;;;7.34;68.27;99019.25;5007891;28;19922;-81
2023/01/16 03:28:11;;;;;;;;;;;;;;;7.33;68.48;99016.81;5011027;28;20407;-80
2023/01/16 03:30:43;;;;;;;;;;;;;;;7.33;68.31;99011.44;4998325;28;20016;-80
2023/01/16 03:33:22;;;;;;;;;;;;;;;7.31;68.29;99000.97;5005398;28;20370;-79
2023/01/16 03:35:57;;;;;;;;;;;;;;;7.31;68.26;98986.75;5008571;28;19948;-79
2023/01/16 03:38:23;;;;;;;;;;;;;;;7.30;68.27;98983.22;4999341;28;20369;-77
2023/01/16 03:40:51;;;;;;;;;;;;;;;7.30;68.28;98977.06;5009919;28;19928;-82
2023/01/16 03:43:37;;;;;;;;;;;;;;;7.28;68.19;98961.22;4999106;28;19961;-81
2023/01/16 03:46:09;;;;;;;;;;;;;;;7.28;68.11;98950.47;5012830;28;19925;-79
2023/01/16 03:48:37;;;;;;;;;;;;;;;7.28;68.17;98936.22;5009796;28;20439;-81
2023/01/16 03:51:05;;;;;;;;;;;;;;;7.27;68.19;98930.06;5008378;28;19917;-80
2023/01/16 03:53:33;;;;;;;;;;;;;;;7.26;68.34;98924.97;4996951;28;20008;-79
2023/01/16 03:56:12;;;;;;;;;;;;;;;7.25;68.16;98918.75;5009253;28;19959;-79
2023/01/16 03:58:39;;;;;;;;;;;;;;;7.24;68.23;98901.03;5010362;28;19921;-78
2023/01/16 04:01:22;;;;;;;;;;;;;;;7.23;68.17;98899.44;5011105;28;19921;-78
2023/01/16 04:03:53;;;;;;;;;;;;;;;7.23;68.28;98888.72;5003491;28;19949;-80
2023/01/16 04:06:29;;;;;;;;;;;;;;;7.22;68.32;98895.13;4998399;28;19921;-79
2023/01/16 04:08:54;;;;;;;;;;;;;;;7.21;68.24;98877.41;5008144;28;19921;-78
2023/01/16 04:11:21;;;;;;;;;;;;;;;7.20;68.03;98870.41;5011083;28;19921;-81
2023/01/16 04:13:48;;;;;;;;;;;;;;;7.20;68.24;98866.94;5001674;28;19944;-80
2023/01/16 04:16:14;;;;;;;;;;;;;;;7.19;68.15;98857.28;5008024;28;19929;-81
2023/01/16 04:18:40;;;;;;;;;;;;;;;7.18;68.26;98844.91;5011008;28;19967;-80
2023/01/16 04:21:06;;;;;;;;;;;;;;;7.17;68.34;98836.03;5012443;28;20366;-81
2023/01/16 04:23:31;;;;;;;;;;;;;;;7.16;68.27;98829.06;5006941;28;20352;-80
2023/01/16 04:25:56;;;;;;;;;;;;;;;7.14;68.31;98812.41;5001868;28;19975;-80
2023/01/16 04:28:22;;;;;;;;;;;;;;;7.14;68.10;98799.00;5012065;28;19936;-78
2023/01/16 04:30:47;;;;;;;;;;;;;;;7.12;68.32;98790.41;5004061;28;19957;-79
2023/01/16 04:33:12;;;;;;;;;;;;;;;7.11;68.20;98778.84;5009712;28;19926;-79
2023/01/16 04:35:37;;;;;;;;;;;;;;;7.10;68.34;98777.22;5003587;28;19960;-78
2023/01/16 04:38:03;;;;;;;;;;;;;;;7.11;68.50;98772.69;5003707;28;20279;-80
2023/01/16 04:40:28;;;;;;;;;;;;;;;7.11;68.39;98753.91;5006272;28;19929;-79
2023/01/16 04:42:54;;;;;;;;;;;;;;;7.10;68.33;98750.38;5005990;28;19964;-80
2023/01/16 04:45:20;;;;;;;;;;;;;;;7.10;68.42;98744.22;5004319;28;19936;-79
2023/01/16 04:47:48;;;;;;;;;;;;;;;7.09;68.06;98738.03;5009450;28;20358;-79
2023/01/16 04:50:14;;;;;;;;;;;;;;;7.07;68.21;98726.78;5010409;28;20393;-79
2023/01/16 04:52:40;;;;;;;;;;;;;;;7.06;68.47;98711.75;5007868;28;19925;-78
2023/01/16 04:55:06;;;;;;;;;;;;;;;7.07;68.45;98707.19;5008345;28;20016;-79
2023/01/16 04:57:31;;;;;;;;;;;;;;;7.06;68.52;98698.31;5003549;28;19925;-79
2023/01/16 04:59:56;;;;;;;;;;;;;;;7.04;68.23;98686.25;5000740;28;19934;-78
2023/01/16 05:02:21;;;;;;;;;;;;;;;7.05;68.48;98682.47;5004979;28;19969;-79
2023/01/16 05:04:47;;;;;;;;;;;;;;;7.04;68.42;98670.13;5005917;28;19926;-80
2023/01/16 05:07:12;;;;;;;;;;;;;;;7.02;68.41;98659.66;5010515;28;20378;-80
2023/01/16 05:09:37;;;;;;;;;;;;;;;7.03;68.13;98652.41;5005844;28;19925;-80
2023/01/16 05:12:03;;;;;;;;;;;;;;;7.02;68.23;98646.25;5004517;28;20386;-79
2023/01/16 05:14:28;;;;;;;;;;;;;;;7.03;68.39;98639.81;5004325;28;20355;-80
2023/01/16 05:16:53;;;;;;;;;;;;;;;7.02;68.11;98629.34;5011262;28;19932;-78
2023/01/16 05:19:18;;;;;;;;;;;;;;;7.01;68.40;98625.84;5004322;28;19922;-78
2023/01/16 05:21:44;;;;;;;;;;;;;;;7.02;68.37;98613.22;5013995;28;19980;-79
2023/01/16 05:24:09;;;;;;;;;;;;;;;7.01;68.28;98601.69;5011021;28;20405;-80
2023/01/16 05:26:34;;;;;;;;;;;;;;;7.00;68.50;98586.66;4998213;28;20363;-79
2023/01/16 05:29:00;;;;;;;;;;;;;;;7.00;68.41;98578.59;5007785;28;19952;-79
2023/01/16 05:31:25;;;;;;;;;;;;;;;6.99;68.32;98563.56;5009293;28;19925;-77
2023/01/16 05:33:50;;;;;;;;;;;;;;;7.00;68.42;98559.00;5008124;28;20416;-78
2023/01/16 05:36:16;;;;;;;;;;;;;;;6.99;68.33;98544.00;5010172;28;20293;-80
2023/01/16 05:38:41;;;;;;;;;;;;;;;6.99;68.14;98538.63;5004680;28;19925;-79
2023/01/16 05:41:06;;;;;;;;;;;;;;;6.98;68.25;98534.31;5008924;28;19940;-79
2023/01/16 05:43:31;;;;;;;;;;;;;;;6.98;68.21;98529.78;5013429;28;19926;-78
2023/01/16 05:45:57;;;;;;;;;;;;;;;6.98;68.54;98526.25;5011342;28;19922;-79
2023/01/16 05:48:23;;;;;;;;;;;;;;;6.97;68.58;98522.78;4999002;28;19929;-80
2023/01/16 05:50:49;;;;;;;;;;;;;;;6.95;68.36;98516.88;5004806;28;20019;-78
2023/01/16 05:53:14;;;;;;;;;;;;;;;6.95;68.15;98506.13;5002147;28;20326;-78
2023/01/16 05:55:42;;;;;;;;;;;;;;;6.94;68.29;98505.34;5002031;28;20381;-79
2023/01/16 05:58:09;;;;;;;;;;;;;;;6.94;68.20;98501.88;5004490;28;20017;-81
2023/01/16 06:00:34;;;;;;;;;;;;;;;6.93;68.54;98500.25;5007414;28;19925;-75
2023/01/16 06:02:59;;;;;;;;;;;;;;;6.94;68.62;98488.44;4995657;28;19937;-77
2023/01/16 06:05:24;;;;;;;;;;;;;;;6.93;68.43;98487.66;5012311;28;19925;-80
2023/01/16 06:07:53;;;;;;;;;;;;;;;6.93;68.57;98484.97;5013096;28;19944;-79
2023/01/16 06:10:19;;;;;;;;;;;;;;;6.93;68.51;98473.44;5005197;28;19992;-80
2023/01/16 06:12:45;;;;;;;;;;;;;;;6.92;68.51;98459.19;5004919;28;19932;-82
2023/01/16 06:15:10;;;;;;;;;;;;;;;6.93;68.51;98458.13;5006508;28;19921;-79
2023/01/16 06:17:35;;;;;;;;;;;;;;;6.93;68.57;98446.59;4996816;28;19918;-80
2023/01/16 06:20:01;;;;;;;;;;;;;;;6.92;68.43;98442.28;5008610;28;20332;-79
2023/01/16 06:22:26;;;;;;;;;;;;;;;6.91;68.44;98433.44;5006274;28;20392;-79
2023/01/16 06:24:52;;;;;;;;;;;;;;;6.91;68.31;98420.00;5004428;28;19931;-81
2023/01/16 06:27:19;;;;;;;;;;;;;;;6.92;68.34;98410.88;5012687;28;20413;-78
2023/01/16 06:29:44;;;;;;;;;;;;;;;6.91;68.28;98398.53;5010166;28;19971;-80
2023/01/16 06:32:09;;;;;;;;;;;;;;;6.91;68.61;98384.34;5010886;28;20233;-80
2023/01/16 06:34:35;;;;;;;;;;;;;;;6.90;68.67;98375.47;5006205;28;19929;-79
2023/01/16 06:37:00;;;;;;;;;;;;;;;6.88;68.67;98364.22;4994498;28;20020;-79
2023/01/16 06:39:25;;;;;;;;;;;;;;;6.88;68.73;98358.84;5005374;28;19925;-79
2023/01/16 06:41:50;;;;;;;;;;;;;;;6.89;68.75;98332.81;5007020;28;19928;-79
2023/01/16 06:44:16;;;;;;;;;;;;;;;6.87;68.77;98316.97;4995111;28;19922;-80
2023/01/16 06:46:41;;;;;;;;;;;;;;;6.87;68.85;98318.88;5001395;28;20431;-79
2023/01/16 06:49:06;;;;;;;;;;;;;;;6.85;68.55;98305.72;4999409;28;20172;-79
2023/01/16 06:51:31;;;;;;;;;;;;;;;6.85;68.95;98297.66;5010473;28;19928;-80
2023/01/16 06:53:57;;;;;;;;;;;;;;;6.86;68.93;98293.13;5007477;28;19933;-79
2023/01/16 06:56:23;;;;;;;;;;;;;;;6.86;68.95;98282.38;4999600;28;19925;-80
2023/01/16 06:58:49;;;;;;;;;;;;;;;6.84;68.95;98277.28;5012197;28;20285;-80
2023/01/16 07:01:14;;;;;;;;;;;;;;;6.85;68.70;98268.16;5011875;28;20379;-80
2023/01/16 07:03:39;;;;;;;;;;;;;;;6.84;68.82;98261.19;5002115;28;20371;-80
2023/01/16 07:06:05;;;;;;;;;;;;;;;6.85;68.80;98249.38;5006158;28;19925;-80
2023/01/16 07:08:30;;;;;;;;;;;;;;;6.85;68.83;98244.00;5011720;28;20370;-80
2023/01/16 07:10:59;;;;;;;;;;;;;;;6.85;68.73;98232.47;5010919;28;19929;-79
2023/01/16 07:13:27;;;;;;;;;;;;;;;6.84;68.74;98215.56;5003597;28;19925;-80
2023/01/16 07:24:10;;;;;;;;;;;;;;;6.82;69.00;98180.16;5012210;28;19955;-80
2023/01/16 07:26:37;;;;;;;;;;;;;;;6.82;69.06;98171.31;5005295;28;20036;-81
2023/01/16 07:29:03;;;;;;;;;;;;;;;6.81;68.94;98167.03;5010730;28;19952;-81
2023/01/16 07:31:29;;;;;;;;;;;;;;;6.82;69.14;98157.91;4997529;28;20290;-80
2023/01/16 07:33:54;;;;;;;;;;;;;;;6.81;69.11;98167.03;4997450;28;20021;-81
2023/01/16 07:36:19;;;;;;;;;;;;;;;6.79;69.13;98151.22;4996771;28;19926;-80
2023/01/16 07:38:45;;;;;;;;;;;;;;;6.81;69.15;98150.94;5006810;28;20262;-81
2023/01/16 07:41:10;;;;;;;;;;;;;;;6.81;68.88;98143.69;5007814;28;20013;-81
2023/01/16 07:43:35;;;;;;;;;;;;;;;6.81;69.13;98150.94;4995216;28;19925;-80
2023/01/16 07:46:00;;;;;;;;;;;;;;;6.82;68.90;98141.81;5005274;28;19925;-81
2023/01/16 07:48:26;;;;;;;;;;;;;;;6.81;69.18;98138.31;5010658;28;20369;-82
2023/01/16 07:50:52;;;;;;;;;;;;;;;6.81;68.94;98137.53;4993403;28;19925;-79
2023/01/16 07:53:21;;;;;;;;;;;;;;;6.80;69.15;98131.34;5008828;28;20369;-79
2023/01/16 07:55:47;;;;;;;;;;;;;;;6.81;69.26;98118.75;5012437;28;19918;-80
2023/01/16 07:58:12;;;;;;;;;;;;;;;6.81;69.26;98118.75;5002969;28;19984;-81
2023/01/16 08:00:37;;;;;;;;;;;;;;;6.81;69.08;98108.03;5008052;28;19932;-81
2023/01/16 08:03:02;;;;;;;;;;;;;;;6.82;69.20;98102.34;5000986;28;20303;-82
2023/01/16 08:05:28;;;;;;;;;;;;;;;6.83;69.13;98095.91;4999728;28;20333;-82
2023/01/16 08:07:53;;;;;;;;;;;;;;;6.83;69.17;98093.25;5008048;28;20369;-83
2023/01/16 08:10:18;;;;;;;;;;;;;;;6.81;69.04;98083.88;4999889;28;20001;-82
2023/01/16 08:12:43;;;;;;;;;;;;;;;6.81;69.14;98079.31;5009669;28;20402;-80
2023/01/16 08:15:09;;;;;;;;;;;;;;;6.81;69.07;98081.19;5010159;28;19925;-81
2023/01/16 08:17:37;;;;;;;;;;;;;;;6.82;68.99;98070.16;5004044;28;19948;-81
2023/01/16 08:20:02;;;;;;;;;;;;;;;6.81;69.16;98068.56;4993079;28;19929;-80
2023/01/16 08:22:28;;;;;;;;;;;;;;;6.79;69.21;98060.00;5005871;28;19926;-81
2023/01/16 08:24:53;;;;;;;;;;;;;;;6.81;69.02;98060.53;5016565;28;19932;-80
2023/01/16 08:27:18;;;;;;;;;;;;;;;6.83;69.08;98050.31;5000860;28;19987;-82
2023/01/16 08:29:44;;;;;;;;;;;;;;;6.83;69.14;98047.63;4997329;28;20333;-81
2023/01/16 08:32:09;;;;;;;;;;;;;;;6.83;69.04;98036.06;5002576;28;19921;-80
2023/01/16 08:34:34;;;;;;;;;;;;;;;6.83;69.26;98036.06;5010812;28;20377;-81
2023/01/16 08:37:02;;;;;;;;;;;;;;;6.82;69.30;98035.28;5007497;28;19944;-80
2023/01/16 08:39:27;;;;;;;;;;;;;;;6.85;69.13;98028.53;5007243;28;19980;-78
2023/01/16 08:52:54;;;;;;;;;;;;;;;6.85;69.09;98025.84;4998903;28;19944;-81
2023/01/16 08:55:19;;;;;;;;;;;;;;;6.84;68.96;98019.69;5022480;28;20362;-82
2023/01/16 08:57:44;;;;;;;;;;;;;;;6.85;69.01;98012.44;5024366;28;19926;-81
2023/01/16 09:00:10;;;;;;;;;;;;;;;6.86;69.33;98008.69;5012956;28;19925;-81
2023/01/16 09:02:36;;;;;;;;;;;;;;;6.86;69.27;98003.31;5007444;28;19926;-82
2023/01/16 09:05:02;;;;;;;;;;;;;;;6.86;69.25;97995.28;5000078;28;19933;-81
2023/01/16 09:07:28;;;;;;;;;;;;;;;6.85;69.19;97994.44;5007866;28;19922;-80
2023/01/16 09:09:54;;;;;;;;;;;;;;;6.85;69.13;97994.44;5004568;28;20012;-75
2023/01/16 09:15:03;;;;;;;;;;;;;;;6.85;69.11;97986.41;5004576;28;19936;-82
2023/01/16 09:17:28;;;;;;;;;;;;;;;6.85;69.13;97975.66;5010737;28;19929;-82
2023/01/16 09:19:54;;;;;;;;;;;;;;;6.87;69.32;97972.72;5011067;28;19925;-79
2023/01/16 09:22:19;;;;;;;;;;;;;;;6.87;68.91;97965.47;5009746;28;19925;-81
2023/01/16 09:24:44;;;;;;;;;;;;;;;6.87;69.19;97964.66;5011057;28;19961;-81
2023/01/16 09:27:12;;;;;;;;;;;;;;;6.87;69.07;97962.78;5023318;28;20026;-81
2023/01/16 09:29:37;;;;;;;;;;;;;;;6.87;69.05;97962.78;5005763;28;19921;-82
2023/01/16 09:32:08;;;;;;;;;;;;;;;6.87;69.18;97945.88;5010571;28;19981;-83
2023/01/16 09:34:33;;;;;;;;;;;;;;;6.89;69.04;97957.13;5000301;28;19928;-82
2023/01/16 09:36:58;;;;;;;;;;;;;;;6.88;69.09;97956.34;5000203;28;19922;-84
2023/01/16 09:39:24;;;;;;;;;;;;;;;6.88;69.22;97953.66;5013223;28;19922;-82
2023/01/16 09:44:59;;;;;;;;;;;;;;;6.89;68.97;97959.81;5008090;28;19929;-82
2023/01/16 09:47:25;;;;;;;;;;;;;;;6.89;69.25;97957.13;5010297;28;19922;-82
2023/01/16 09:49:53;;;;;;;;;;;;;;;6.88;69.29;97950.97;5013220;28;19928;-82
2023/01/16 10:00:44;;;;;;;;;;;;;;;6.88;69.29;97934.09;4993609;28;19929;-83
2023/01/16 10:03:10;;;;;;;;;;;;;;;6.89;69.12;97927.63;4994681;28;20012;-82
2023/01/16 10:05:44;;;;;;;;;;;;;;;6.89;69.33;97928.41;5000747;28;19976;-83
2023/01/16 10:08:18;;;;;;;;;;;;;;;6.90;69.25;97927.34;5000458;28;19973;-83
2023/01/16 10:10:43;;;;;;;;;;;;;;;6.90;69.42;97919.28;4995687;28;20020;-83
2023/01/16 10:13:11;;;;;;;;;;;;;;;6.90;69.14;97916.59;5012592;28;20342;-84
2023/01/16 10:16:02;;;;;;;;;;;;;;;6.92;69.48;97913.63;5006109;28;20001;-82
2023/01/16 10:18:34;;;;;;;;;;;;;;;6.93;69.29;97912.56;5005933;28;20391;-81
2023/01/16 10:21:37;;;;;;;;;;;;;;;6.91;69.22;97902.09;5007650;28;19948;-75
2023/01/16 10:24:12;;;;;;;;;;;;;;;6.92;69.19;97895.63;4983969;28;19933;-79
2023/01/16 10:26:46;;;;;;;;;;;;;;;6.93;69.27;97902.59;4988643;28;19929;-83
2023/01/16 10:29:17;;;;;;;;;;;;;;;6.93;69.44;97896.44;4994659;28;19969;-82
2023/01/16 10:31:44;;;;;;;;;;;;;;;6.93;69.34;97893.75;5000284;28;19928;-81
2023/01/16 10:34:14;;;;;;;;;;;;;;;6.92;69.51;97884.88;5003250;28;19921;-77
2023/01/16 10:36:42;;;;;;;;;;;;;;;6.94;69.24;97882.72;5006331;28;19922;-77
2023/01/16 10:39:10;;;;;;;;;;;;;;;6.96;69.17;97871.72;5004316;28;19968;-82
2023/01/16 10:49:55;;;;;;;;;;;;;;;6.97;69.25;97857.19;5004700;28;19929;-81
2023/01/16 10:52:21;;;;;;;;;;;;;;;6.98;69.41;97856.13;5013020;28;19922;-82
2023/01/16 10:54:50;;;;;;;;;;;;;;;7.00;69.17;97842.41;5025668;28;19987;-82
2023/01/16 10:57:16;;;;;;;;;;;;;;;6.99;69.40;97844.28;5003429;28;19928;-79
2023/01/16 10:59:43;;;;;;;;;;;;;;;7.01;69.41;97827.91;4997601;28;19923;-77
2023/01/16 11:02:17;;;;;;;;;;;;;;;7.01;69.22;97822.53;5018690;28;19925;-83
2023/01/16 11:04:42;;;;;;;;;;;;;;;7.01;69.26;97826.03;5013960;28;19987;-84
2023/01/16 11:07:15;;;;;;;;;;;;;;;7.02;69.23;97810.72;5008419;28;19969;-82
2023/01/16 11:09:42;;;;;;;;;;;;;;;7.02;69.44;97808.81;4998096;28;19921;-80
2023/01/16 11:20:41;;;;;;;;;;;;;;;7.04;69.72;97790.53;5007072;28;20000;-82
2023/01/16 11:23:20;;;;;;;;;;;;;;;7.06;69.67;97785.69;5009602;28;19925;-84
2023/01/16 11:25:47;;;;;;;;;;;;;;;7.08;69.56;97782.69;5010140;28;19928;-80
2023/01/16 11:28:16;;;;;;;;;;;;;;;7.07;69.51;97775.75;5004956;28;20020;-84
2023/01/16 11:30:43;;;;;;;;;;;;;;;7.08;69.53;97771.94;5001290;28;19928;-85
2023/01/16 11:33:13;;;;;;;;;;;;;;;7.08;69.49;97761.22;4998724;28;20314;-79
2023/01/16 11:35:39;;;;;;;;;;;;;;;7.09;69.43;97760.16;4995384;28;19957;-83
2023/01/16 11:38:05;;;;;;;;;;;;;;;7.10;69.61;97751.00;5003948;28;19968;-84
2023/01/16 11:40:43;;;;;;;;;;;;;;;7.10;69.41;97740.25;4997447;28;19922;-85
2023/01/16 11:46:03;;;;;;;;;;;;;;;7.10;69.36;97730.31;5005718;28;20341;-83
2023/01/16 11:48:37;;;;;;;;;;;;;;;7.10;69.43;97727.63;4997619;28;19965;-86
2023/01/16 11:51:04;;;;;;;;;;;;;;;7.12;69.68;97722.78;5004826;28;20415;-86
2023/01/16 11:53:31;;;;;;;;;;;;;;;7.12;69.61;97711.25;5017732;28;20350;-85
2023/01/16 11:56:10;;;;;;;;;;;;;;;7.12;69.51;97708.56;5011312;28;20016;-84
2023/01/16 11:58:54;;;;;;;;;;;;;;;7.14;69.42;97709.06;5010441;28;20036;-81
2023/01/16 12:01:26;;;;;;;;;;;;;;;7.13;69.44;97697.53;4995639;28;19922;-84
2023/01/16 12:03:58;;;;;;;;;;;;;;;7.16;69.35;97693.47;4992843;28;19922;-83
2023/01/16 12:06:50;;;;;;;;;;;;;;;7.18;69.46;97701.22;4998597;28;20012;-84
2023/01/16 12:09:24;;;;;;;;;;;;;;;7.19;69.48;97682.13;5013703;28;19921;-84
2023/01/16 12:11:52;;;;;;;;;;;;;;;7.18;69.34;97672.47;5005919;28;19922;-83
2023/01/16 12:14:23;;;;;;;;;;;;;;;7.19;69.53;97675.97;5010058;28;21613;-83
2023/01/16 12:17:07;;;;;;;;;;;;;;;7.20;69.56;97664.13;5009200;28;19944;-85
2023/01/16 12:20:11;;;;;;;;;;;;;;;7.20;69.38;97656.09;5008582;28;19949;-82
2023/01/16 12:22:46;;;;;;;;;;;;;;;7.19;69.57;97660.66;5013569;28;19923;-84
2023/01/16 12:25:23;;;;;;;;;;;;;;;7.20;69.41;97650.72;5026282;28;19967;-81
2023/01/16 12:28:01;;;;;;;;;;;;;;;7.21;69.44;97650.44;5010634;28;20009;-82
2023/01/16 12:30:50;;;;;;;;;;;;;;;7.22;69.52;97645.84;5005198;28;20020;-81
2023/01/16 12:33:38;;;;;;;;;;;;;;;7.23;69.40;97637.50;5007118;28;20267;-85
2023/01/16 12:36:13;;;;;;;;;;;;;;;7.23;69.41;97634.81;5008230;28;19967;-84
2023/01/16 12:38:53;;;;;;;;;;;;;;;7.24;69.69;97628.34;5014300;28;19940;-83
2023/01/16 12:44:28;;;;;;;;;;;;;;;7.26;69.34;97628.84;4996235;28;19964;-82
2023/01/16 12:47:12;;;;;;;;;;;;;;;7.26;69.58;97617.31;5014146;28;19925;-77
2023/01/16 12:49:46;;;;;;;;;;;;;;;7.28;69.69;97623.16;5006439;28;20288;-83
2023/01/16 12:52:32;;;;;;;;;;;;;;;7.29;69.43;97619.41;5012441;28;19971;-81
2023/01/16 12:55:14;;;;;;;;;;;;;;;7.30;69.49;97607.56;5012353;28;20341;-83
2023/01/16 12:57:45;;;;;;;;;;;;;;;7.30;69.51;97604.88;5004421;28;19973;-80
2023/01/16 13:00:20;;;;;;;;;;;;;;;7.31;69.75;97611.84;5013209;28;19925;-83
2023/01/16 13:02:45;;;;;;;;;;;;;;;7.32;69.56;97613.44;5013412;28;19921;-84
2023/01/16 13:05:18;;;;;;;;;;;;;;;7.33;69.49;97610.47;4996154;28;20332;-81
2023/01/16 13:07:50;;;;;;;;;;;;;;;7.35;69.62;97608.25;5012983;28;19921;-78
2023/01/16 13:13:26;;;;;;;;;;;;;;;7.38;69.65;97609.53;4995290;28;20400;-83
2023/01/16 13:16:13;;;;;;;;;;;;;;;7.37;69.71;97606.06;5026455;28;20027;-84
2023/01/16 13:18:42;;;;;;;;;;;;;;;7.37;69.65;97606.06;5013353;28;20016;-84
2023/01/16 13:21:12;;;;;;;;;;;;;;;7.38;69.57;97606.88;5013861;28;19922;-82
2023/01/16 13:23:41;;;;;;;;;;;;;;;7.39;69.72;97595.03;4994130;28;20020;-78
2023/01/16 13:26:09;;;;;;;;;;;;;;;7.39;69.75;97603.09;5007424;28;20327;-82
2023/01/16 13:28:53;;;;;;;;;;;;;;;7.41;69.56;97600.09;5011461;28;20423;-83
2023/01/16 13:31:28;;;;;;;;;;;;;;;7.41;69.79;97600.09;5009331;28;20348;-77
2023/01/16 13:33:59;;;;;;;;;;;;;;;7.42;69.59;97602.50;5013717;28;19971;-84
2023/01/16 13:36:42;;;;;;;;;;;;;;;7.43;69.78;97598.72;5004065;28;20015;-84
2023/01/16 13:39:07;;;;;;;;;;;;;;;7.44;69.92;97599.53;5011359;28;19921;-84
2023/01/16 13:41:39;;;;;;;;;;;;;;;7.43;69.67;97592.53;4995371;28;19925;-83
2023/01/16 13:47:06;;;;;;;;;;;;;;;7.45;69.61;97595.72;5014995;28;19928;-86
2023/01/16 13:49:32;;;;;;;;;;;;;;;7.46;69.68;97589.25;5011830;28;20009;-81
2023/01/16 13:52:00;;;;;;;;;;;;;;;7.46;69.79;97592.75;5017097;28;19925;-87
2023/01/16 13:54:31;;;;;;;;;;;;;;;7.48;69.56;97595.91;5015241;28;20313;-88
2023/01/16 13:57:01;;;;;;;;;;;;;;;7.49;69.57;97589.47;5006730;28;19964;-87
2023/01/16 13:59:27;;;;;;;;;;;;;;;7.50;69.72;97590.25;5001099;28;19922;-87
2023/01/16 14:01:56;;;;;;;;;;;;;;;7.52;69.66;97590.75;4994771;28;19977;-86
2023/01/16 14:04:21;;;;;;;;;;;;;;;7.50;69.75;97592.94;5003374;28;20378;-82
2023/01/16 14:06:48;;;;;;;;;;;;;;;7.50;69.73;97591.06;5010099;28;19931;-86
2023/01/16 14:09:22;;;;;;;;;;;;;;;7.53;69.65;97595.03;5002224;28;20278;-87
2023/01/16 14:11:57;;;;;;;;;;;;;;;7.51;69.78;97584.59;5001886;28;19922;-87
2023/01/16 14:17:12;;;;;;;;;;;;;;;7.53;69.55;97586.97;5006195;28;19929;-87